Terminal Aerodrome Forecast
Issued by NWS

Home | Current Version | Previous Version | Text Only | Print | Product List | Glossary On
Versions: 1 2 3 4 5 6 7 8 9 10 11 12
711
FTUS46 KLOX 130539
TAFWJF
TAF
KWJF 130539Z 1306/1406 26008KT P6SM BKN250
     FM132200 32014KT P6SM SCT250=

USA.gov is the U.S. government's official web portal to all federal, state and local government web resources and services.